Time;durP1;ratioP1;P1;durP2;ratioP2;P2;SDS_P1;SDS_P2;PMS_P1;PMS_P2;Temp;Humidity;BMP_temperature;BMP_pressure;BME280_temperature;BME280_humidity;BME280_pressure;Samples;Min_cycle;Max_cycle;Signal;HPM_P1;HPM_P2
2022/01/17 00:01:18;;;;;;;16.73;4.30;;;;;;;;;;4981656;28;92504;-68
2022/01/17 00:03:45;;;;;;;15.07;3.95;;;;;;;;;;4980967;28;94019;-68
2022/01/17 00:06:11;;;;;;;12.45;4.10;;;;;;;;;;4980645;28;94583;-68
2022/01/17 00:08:42;;;;;;;21.67;4.05;;;;;;;;;;4980502;28;92513;-69
2022/01/17 00:11:08;;;;;;;14.10;2.88;;;;;;;;;;4975992;28;94208;-68
2022/01/17 00:13:35;;;;;;;15.63;3.33;;;;;;;;;;4979787;28;94547;-68
2022/01/17 00:16:24;;;;;;;15.80;3.47;;;;;;;;;;4986791;28;92463;-68
2022/01/17 00:21:17;;;;;;;11.98;2.80;;;;;;;;;;4982084;28;94123;-68
2022/01/17 00:23:44;;;;;;;14.02;3.53;;;;;;;;;;4973127;28;93353;-69
2022/01/17 00:26:10;;;;;;;12.25;3.13;;;;;;;;;;4986163;28;94192;-68
2022/01/17 00:28:36;;;;;;;18.80;3.80;;;;;;;;;;4982385;28;92528;-68
2022/01/17 00:31:05;;;;;;;10.15;2.65;;;;;;;;;;4983440;28;92594;-68
2022/01/17 00:33:32;;;;;;;10.55;2.53;;;;;;;;;;4991490;28;94220;-68
2022/01/17 00:35:59;;;;;;;19.25;3.10;;;;;;;;;;4984447;28;91878;-68
2022/01/17 00:38:25;;;;;;;12.85;3.03;;;;;;;;;;4978290;28;92513;-68
2022/01/17 00:40:51;;;;;;;14.88;3.63;;;;;;;;;;4982449;28;94155;-68
2022/01/17 00:43:18;;;;;;;16.58;3.38;;;;;;;;;;4988640;28;94905;-69
2022/01/17 00:45:45;;;;;;;16.02;3.25;;;;;;;;;;4985808;28;93492;-69
2022/01/17 00:48:11;;;;;;;11.80;2.78;;;;;;;;;;4995496;28;92547;-69
2022/01/17 00:50:39;;;;;;;23.23;3.28;;;;;;;;;;4996058;28;93438;-69
2022/01/17 00:53:08;;;;;;;18.75;4.00;;;;;;;;;;4986536;28;93417;-69
2022/01/17 00:55:36;;;;;;;15.25;2.75;;;;;;;;;;4991872;28;92565;-68
2022/01/17 00:58:02;;;;;;;12.90;3.20;;;;;;;;;;4994349;28;93043;-68
2022/01/17 01:00:29;;;;;;;16.58;3.85;;;;;;;;;;4993569;28;92897;-68
2022/01/17 01:02:55;;;;;;;9.95;2.60;;;;;;;;;;4982561;28;92874;-68
2022/01/17 01:05:22;;;;;;;12.23;3.38;;;;;;;;;;4999879;28;93874;-68
2022/01/17 01:07:48;;;;;;;20.50;3.45;;;;;;;;;;4985348;28;95385;-68
2022/01/17 01:10:15;;;;;;;11.45;2.58;;;;;;;;;;4992232;28;97180;-68
2022/01/17 01:12:43;;;;;;;10.32;2.75;;;;;;;;;;4987350;28;94736;-68
2022/01/17 01:15:18;;;;;;;15.00;3.55;;;;;;;;;;4997015;28;94558;-68
2022/01/17 01:17:53;;;;;;;17.35;2.90;;;;;;;;;;4986114;28;94101;-68
2022/01/17 01:20:51;;;;;;;22.67;3.35;;;;;;;;;;4991080;28;92611;-68
2022/01/17 01:28:42;;;;;;;19.73;2.80;;;;;;;;;;4987142;28;92600;-69
2022/01/17 01:31:14;;;;;;;12.77;2.70;;;;;;;;;;4984789;28;94880;-69
2022/01/17 01:33:48;;;;;;;14.90;3.10;;;;;;;;;;4991602;28;97132;-69
2022/01/17 01:36:20;;;;;;;18.92;2.95;;;;;;;;;;4990297;28;93053;-69
2022/01/17 01:38:47;;;;;;;14.53;2.83;;;;;;;;;;4992291;28;93980;-69
2022/01/17 01:41:14;;;;;;;16.88;2.83;;;;;;;;;;4990009;28;94235;-69
2022/01/17 01:43:40;;;;;;;13.75;2.90;;;;;;;;;;4987672;28;92709;-69
2022/01/17 01:46:06;;;;;;;13.40;3.10;;;;;;;;;;4985100;28;93202;-69
2022/01/17 01:48:34;;;;;;;13.90;2.88;;;;;;;;;;5000387;28;94378;-69
2022/01/17 01:51:01;;;;;;;20.95;3.05;;;;;;;;;;4993344;28;93917;-69
2022/01/17 01:53:27;;;;;;;17.00;3.17;;;;;;;;;;4988760;28;94268;-69
2022/01/17 01:55:56;;;;;;;16.23;2.55;;;;;;;;;;4985503;28;92608;-69
2022/01/17 01:58:23;;;;;;;23.42;4.50;;;;;;;;;;4982170;28;94901;-69
2022/01/17 02:00:50;;;;;;;16.13;2.83;;;;;;;;;;4982443;28;94299;-69
2022/01/17 02:03:16;;;;;;;25.73;4.22;;;;;;;;;;4993153;28;92626;-69
2022/01/17 02:05:44;;;;;;;17.13;2.92;;;;;;;;;;4993260;28;94716;-69
2022/01/17 02:08:11;;;;;;;17.00;3.40;;;;;;;;;;4993447;28;94635;-69
2022/01/17 02:10:37;;;;;;;22.65;4.15;;;;;;;;;;4988307;28;92539;-69
2022/01/17 02:13:04;;;;;;;18.25;3.28;;;;;;;;;;4984621;28;93804;-69
2022/01/17 02:15:30;;;;;;;13.90;2.70;;;;;;;;;;4990321;28;92080;-69
2022/01/17 02:17:58;;;;;;;23.65;3.58;;;;;;;;;;4995674;28;93344;-69
2022/01/17 02:20:28;;;;;;;12.40;4.07;;;;;;;;;;4989865;28;94141;-69
2022/01/17 02:22:54;;;;;;;20.55;3.97;;;;;;;;;;4983592;28;94959;-69
2022/01/17 02:25:21;;;;;;;22.42;3.53;;;;;;;;;;4989392;28;95995;-69
2022/01/17 02:27:48;;;;;;;13.93;2.40;;;;;;;;;;4985401;28;93478;-69
2022/01/17 02:30:17;;;;;;;17.50;2.75;;;;;;;;;;4983522;28;92488;-69
2022/01/17 02:32:43;;;;;;;9.45;2.78;;;;;;;;;;4985708;28;94200;-69
2022/01/17 02:35:10;;;;;;;15.88;2.75;;;;;;;;;;4982991;28;93080;-69
2022/01/17 02:37:37;;;;;;;14.05;2.85;;;;;;;;;;4984465;28;94388;-69
2022/01/17 02:40:03;;;;;;;15.52;3.65;;;;;;;;;;4991524;28;93550;-69
2022/01/17 02:42:30;;;;;;;13.70;3.35;;;;;;;;;;4982794;28;92570;-68
2022/01/17 02:45:05;;;;;;;14.98;3.13;;;;;;;;;;4993885;28;94060;-68
2022/01/17 02:47:31;;;;;;;15.40;2.63;;;;;;;;;;4986498;28;97608;-68
2022/01/17 02:49:58;;;;;;;16.33;3.30;;;;;;;;;;4993401;28;92598;-68
2022/01/17 02:52:24;;;;;;;20.50;3.00;;;;;;;;;;4990893;28;94563;-68
2022/01/17 02:54:50;;;;;;;20.23;2.65;;;;;;;;;;4987254;28;94618;-68
2022/01/17 02:57:17;;;;;;;24.42;3.33;;;;;;;;;;4987467;28;94524;-68
2022/01/17 02:59:43;;;;;;;18.63;3.05;;;;;;;;;;4984320;28;94716;-68
2022/01/17 03:02:09;;;;;;;12.68;2.53;;;;;;;;;;4983216;28;92506;-68
2022/01/17 03:04:35;;;;;;;25.23;3.40;;;;;;;;;;4980101;28;94272;-68
2022/01/17 03:07:02;;;;;;;15.55;4.10;;;;;;;;;;4988281;28;94908;-68
2022/01/17 03:09:35;;;;;;;13.18;2.55;;;;;;;;;;4987843;28;94860;-68
2022/01/17 03:12:02;;;;;;;20.63;3.30;;;;;;;;;;4972415;28;94852;-68
2022/01/17 03:14:28;;;;;;;18.50;2.85;;;;;;;;;;4992060;28;94132;-68
2022/01/17 03:16:56;;;;;;;14.30;2.70;;;;;;;;;;4980574;28;94474;-68
2022/01/17 03:19:22;;;;;;;22.85;3.70;;;;;;;;;;4986987;28;94149;-68
2022/01/17 03:21:49;;;;;;;13.75;2.78;;;;;;;;;;4986996;28;93044;-68
2022/01/17 03:24:16;;;;;;;15.15;2.65;;;;;;;;;;4991949;28;93963;-69
2022/01/17 03:26:42;;;;;;;8.93;2.35;;;;;;;;;;4988507;28;94571;-69
2022/01/17 03:29:09;;;;;;;16.13;3.78;;;;;;;;;;4990728;28;91791;-69
2022/01/17 03:31:35;;;;;;;10.50;2.45;;;;;;;;;;4981291;28;93209;-68
2022/01/17 03:34:01;;;;;;;10.88;2.70;;;;;;;;;;4984922;28;94618;-69
2022/01/17 03:36:28;;;;;;;25.65;4.32;;;;;;;;;;4983674;28;95071;-69
2022/01/17 03:38:55;;;;;;;19.40;2.90;;;;;;;;;;4987123;28;93456;-69
2022/01/17 03:41:22;;;;;;;13.77;2.60;;;;;;;;;;4984696;28;92716;-68
2022/01/17 03:43:49;;;;;;;18.80;2.80;;;;;;;;;;4994040;28;94335;-69
2022/01/17 03:46:15;;;;;;;11.48;2.45;;;;;;;;;;4977539;28;94239;-69
2022/01/17 03:48:41;;;;;;;17.17;3.35;;;;;;;;;;4983988;28;93064;-69
2022/01/17 03:51:08;;;;;;;17.33;2.53;;;;;;;;;;4985863;28;93422;-69
2022/01/17 03:53:34;;;;;;;9.30;3.58;;;;;;;;;;4986786;28;93474;-69
2022/01/17 03:56:00;;;;;;;17.40;3.20;;;;;;;;;;4989609;28;92586;-69
2022/01/17 03:58:27;;;;;;;18.73;5.22;;;;;;;;;;4988667;28;94071;-69
2022/01/17 04:00:55;;;;;;;16.63;2.78;;;;;;;;;;4987754;28;95121;-69
2022/01/17 04:03:22;;;;;;;10.77;2.67;;;;;;;;;;4985209;28;95710;-68
2022/01/17 04:05:49;;;;;;;14.98;2.58;;;;;;;;;;4981610;28;94649;-68
2022/01/17 04:08:15;;;;;;;17.75;3.15;;;;;;;;;;4979626;28;93003;-69
2022/01/17 04:10:41;;;;;;;18.92;2.67;;;;;;;;;;4973514;28;94135;-69
2022/01/17 04:13:08;;;;;;;16.63;3.47;;;;;;;;;;4996431;28;94607;-69
2022/01/17 04:15:35;;;;;;;17.65;3.30;;;;;;;;;;4985295;28;92471;-68
2022/01/17 04:18:06;;;;;;;21.02;3.38;;;;;;;;;;4981975;28;93507;-69
2022/01/17 04:20:32;;;;;;;15.13;3.03;;;;;;;;;;4975687;28;94209;-68
2022/01/17 04:23:02;;;;;;;19.45;2.95;;;;;;;;;;4994554;28;94090;-69
2022/01/17 04:25:30;;;;;;;14.02;3.03;;;;;;;;;;4981506;28;97037;-69
2022/01/17 04:27:58;;;;;;;15.15;2.17;;;;;;;;;;4988717;28;94197;-69
2022/01/17 04:30:24;;;;;;;21.70;3.00;;;;;;;;;;4988473;28;92514;-69
2022/01/17 04:32:51;;;;;;;18.15;3.50;;;;;;;;;;4997556;28;93725;-69
2022/01/17 04:35:21;;;;;;;25.02;2.85;;;;;;;;;;4983899;28;92677;-69
2022/01/17 04:37:52;;;;;;;18.42;3.45;;;;;;;;;;4983376;28;93485;-68
2022/01/17 04:40:19;;;;;;;22.83;4.10;;;;;;;;;;4978252;28;94176;-69
2022/01/17 04:42:48;;;;;;;11.50;2.55;;;;;;;;;;5004314;28;92164;-69
2022/01/17 04:45:17;;;;;;;16.88;2.70;;;;;;;;;;5007479;28;93161;-69
2022/01/17 04:47:45;;;;;;;9.90;3.80;;;;;;;;;;4993101;28;93044;-69
2022/01/17 04:50:13;;;;;;;14.77;2.80;;;;;;;;;;4980747;28;94973;-69
2022/01/17 04:52:40;;;;;;;14.88;3.33;;;;;;;;;;4986519;28;94254;-69
2022/01/17 04:55:08;;;;;;;17.40;3.50;;;;;;;;;;4996990;28;92550;-69
2022/01/17 04:57:36;;;;;;;23.67;4.38;;;;;;;;;;4995412;28;94897;-69
2022/01/17 05:00:04;;;;;;;21.65;4.15;;;;;;;;;;4992652;28;93451;-69
2022/01/17 05:02:30;;;;;;;18.05;3.22;;;;;;;;;;4989132;28;92710;-69
2022/01/17 05:04:56;;;;;;;12.85;2.83;;;;;;;;;;4991593;28;93951;-69
2022/01/17 05:07:23;;;;;;;32.80;4.38;;;;;;;;;;4986475;28;91820;-69
2022/01/17 05:09:49;;;;;;;19.63;3.40;;;;;;;;;;5000326;28;93687;-69
2022/01/17 05:12:16;;;;;;;25.48;3.70;;;;;;;;;;4983769;28;93321;-69
2022/01/17 05:14:47;;;;;;;18.50;3.60;;;;;;;;;;4982314;28;94931;-69
2022/01/17 05:17:37;;;;;;;18.25;4.47;;;;;;;;;;4993613;28;95599;-69
2022/01/17 05:20:05;;;;;;;17.45;4.25;;;;;;;;;;4985928;28;94140;-69
2022/01/17 05:22:33;;;;;;;19.77;3.47;;;;;;;;;;4983483;28;93108;-70
2022/01/17 05:24:59;;;;;;;16.45;3.95;;;;;;;;;;4985485;28;94141;-69
2022/01/17 05:27:26;;;;;;;10.48;3.30;;;;;;;;;;4988149;28;94098;-69
2022/01/17 05:29:53;;;;;;;25.55;5.25;;;;;;;;;;4986316;28;93902;-69
2022/01/17 05:32:20;;;;;;;28.33;5.45;;;;;;;;;;4992338;28;94077;-69
2022/01/17 05:34:48;;;;;;;26.00;4.95;;;;;;;;;;4983817;28;92554;-69
2022/01/17 05:37:14;;;;;;;28.75;5.60;;;;;;;;;;4983962;28;93802;-69
2022/01/17 05:39:42;;;;;;;24.45;4.85;;;;;;;;;;4983160;28;97244;-69
2022/01/17 05:42:14;;;;;;;18.67;4.50;;;;;;;;;;4988760;28;92506;-69
2022/01/17 05:44:41;;;;;;;14.30;3.63;;;;;;;;;;4985188;28;94043;-69
2022/01/17 05:47:07;;;;;;;26.45;5.55;;;;;;;;;;4990478;28;93366;-69
2022/01/17 05:49:33;;;;;;;23.13;4.63;;;;;;;;;;4982546;28;93493;-69
2022/01/17 05:52:00;;;;;;;24.92;6.18;;;;;;;;;;4993481;28;94343;-68
2022/01/17 05:54:26;;;;;;;14.70;4.13;;;;;;;;;;4996310;28;92596;-68
2022/01/17 05:56:52;;;;;;;27.23;5.45;;;;;;;;;;4999618;28;94298;-69
2022/01/17 05:59:19;;;;;;;31.25;6.25;;;;;;;;;;4984243;28;93249;-68
2022/01/17 06:01:45;;;;;;;39.95;6.05;;;;;;;;;;4998510;28;92818;-68
2022/01/17 06:04:11;;;;;;;28.48;6.45;;;;;;;;;;4983380;28;94927;-68
2022/01/17 06:06:38;;;;;;;33.30;5.63;;;;;;;;;;4986568;28;94248;-68
2022/01/17 06:09:04;;;;;;;30.48;5.90;;;;;;;;;;4993117;28;95214;-68
2022/01/17 06:11:33;;;;;;;23.48;6.10;;;;;;;;;;4979262;28;94191;-68
2022/01/17 06:14:00;;;;;;;24.63;5.57;;;;;;;;;;4995391;28;92622;-68
2022/01/17 06:16:26;;;;;;;20.15;5.50;;;;;;;;;;4988440;28;93591;-68
2022/01/17 06:18:53;;;;;;;39.38;7.30;;;;;;;;;;4982358;28;93388;-68
2022/01/17 06:21:19;;;;;;;27.70;6.28;;;;;;;;;;4988982;28;91779;-68
2022/01/17 06:23:45;;;;;;;33.13;6.20;;;;;;;;;;4974639;28;93677;-68
2022/01/17 06:26:12;;;;;;;25.27;6.93;;;;;;;;;;4976940;28;93474;-68
2022/01/17 06:28:38;;;;;;;21.95;5.63;;;;;;;;;;4978027;28;94814;-68
2022/01/17 06:31:04;;;;;;;31.02;7.53;;;;;;;;;;4986475;28;95405;-68
2022/01/17 06:33:31;;;;;;;30.80;8.98;;;;;;;;;;4985064;28;93755;-68
2022/01/17 06:35:57;;;;;;;23.35;8.60;;;;;;;;;;4993194;28;93224;-68
2022/01/17 06:38:23;;;;;;;33.80;9.25;;;;;;;;;;4984851;28;94289;-68
2022/01/17 06:40:50;;;;;;;35.63;10.80;;;;;;;;;;4981323;28;94614;-68
2022/01/17 06:43:16;;;;;;;38.88;10.60;;;;;;;;;;4986553;28;94004;-68
2022/01/17 06:45:44;;;;;;;36.40;10.48;;;;;;;;;;4980764;28;92898;-68
2022/01/17 06:48:11;;;;;;;32.63;12.50;;;;;;;;;;4978557;28;96627;-68
2022/01/17 06:50:37;;;;;;;24.23;10.13;;;;;;;;;;4981748;28;93106;-68
2022/01/17 06:53:04;;;;;;;36.75;11.57;;;;;;;;;;4986566;28;96152;-67
2022/01/17 06:55:31;;;;;;;29.35;12.85;;;;;;;;;;4990444;28;95496;-68
2022/01/17 06:57:57;;;;;;;35.00;12.07;;;;;;;;;;5000489;28;94603;-67
2022/01/17 07:00:23;;;;;;;27.77;13.02;;;;;;;;;;5005706;28;92719;-68
2022/01/17 07:02:51;;;;;;;34.90;14.68;;;;;;;;;;4991878;28;93291;-68
2022/01/17 07:05:18;;;;;;;25.05;11.32;;;;;;;;;;4992302;28;93382;-68
2022/01/17 07:07:45;;;;;;;36.40;14.13;;;;;;;;;;4984637;28;92448;-67
2022/01/17 07:10:11;;;;;;;41.97;17.08;;;;;;;;;;5001047;28;93414;-67
2022/01/17 07:12:37;;;;;;;32.63;14.40;;;;;;;;;;4991351;28;93849;-68
2022/01/17 07:15:07;;;;;;;36.20;15.02;;;;;;;;;;5005590;28;92453;-68
2022/01/17 07:17:34;;;;;;;38.83;13.15;;;;;;;;;;4999778;28;96952;-68
2022/01/17 07:20:00;;;;;;;31.65;14.98;;;;;;;;;;4992547;28;92524;-67
2022/01/17 07:22:32;;;;;;;34.72;14.90;;;;;;;;;;4989847;28;94688;-68
2022/01/17 07:25:00;;;;;;;34.00;14.60;;;;;;;;;;4992544;28;94613;-68
2022/01/17 07:27:32;;;;;;;40.10;15.07;;;;;;;;;;4991725;28;92488;-69
2022/01/17 07:29:58;;;;;;;31.27;12.52;;;;;;;;;;4993114;28;93100;-68
2022/01/17 07:32:25;;;;;;;27.67;12.73;;;;;;;;;;4991256;28;94354;-69
2022/01/17 07:34:52;;;;;;;34.83;14.73;;;;;;;;;;4995042;28;91853;-67
2022/01/17 07:37:19;;;;;;;38.17;15.20;;;;;;;;;;4990967;28;94190;-67
2022/01/17 07:39:46;;;;;;;21.13;11.35;;;;;;;;;;5000128;28;94176;-68
2022/01/17 07:42:12;;;;;;;30.15;13.27;;;;;;;;;;4995267;28;94905;-68
2022/01/17 07:44:40;;;;;;;32.03;14.70;;;;;;;;;;4981453;28;96814;-68
2022/01/17 07:47:15;;;;;;;34.65;15.48;;;;;;;;;;4985911;28;92574;-68
2022/01/17 07:49:45;;;;;;;32.15;12.80;;;;;;;;;;4991201;28;94247;-68
2022/01/17 07:52:31;;;;;;;29.75;14.00;;;;;;;;;;4988913;28;94359;-68
2022/01/17 07:54:57;;;;;;;36.20;13.00;;;;;;;;;;4990754;28;93183;-68
2022/01/17 07:57:24;;;;;;;35.03;12.70;;;;;;;;;;4988029;28;94118;-68
2022/01/17 07:59:50;;;;;;;35.40;12.48;;;;;;;;;;4991637;28;92152;-68
2022/01/17 08:02:17;;;;;;;26.20;12.90;;;;;;;;;;4989371;28;92492;-68
2022/01/17 08:04:43;;;;;;;27.73;12.32;;;;;;;;;;4990465;28;94534;-69
2022/01/17 08:07:09;;;;;;;26.02;11.05;;;;;;;;;;4989273;28;94993;-67
2022/01/17 08:09:36;;;;;;;33.85;11.80;;;;;;;;;;4996206;28;95539;-68
2022/01/17 08:12:07;;;;;;;27.83;10.77;;;;;;;;;;4993921;28;94311;-68
2022/01/17 08:14:34;;;;;;;35.08;10.63;;;;;;;;;;4994770;28;92546;-69
2022/01/17 08:17:00;;;;;;;25.50;10.57;;;;;;;;;;4999538;28;94016;-68
2022/01/17 08:19:26;;;;;;;36.55;10.82;;;;;;;;;;4995945;28;94632;-68
2022/01/17 08:21:58;;;;;;;27.38;10.02;;;;;;;;;;4984179;28;94842;-68
2022/01/17 08:24:25;;;;;;;29.33;8.70;;;;;;;;;;4983159;28;93695;-69
2022/01/17 08:26:51;;;;;;;33.10;9.88;;;;;;;;;;4991143;28;93285;-68
2022/01/17 08:29:18;;;;;;;25.42;10.18;;;;;;;;;;4991106;28;94363;-67
2022/01/17 08:31:46;;;;;;;28.17;8.27;;;;;;;;;;4989083;28;96569;-68
2022/01/17 08:34:13;;;;;;;31.15;8.63;;;;;;;;;;4991101;28;92659;-68
2022/01/17 08:36:40;;;;;;;22.35;6.80;;;;;;;;;;5004067;28;94216;-68
2022/01/17 08:39:07;;;;;;;25.83;9.25;;;;;;;;;;5008765;28;93430;-68
2022/01/17 08:41:34;;;;;;;35.83;7.40;;;;;;;;;;4987863;28;92519;-68
2022/01/17 08:44:00;;;;;;;20.80;7.10;;;;;;;;;;4998529;28;93471;-68
2022/01/17 08:46:26;;;;;;;19.52;6.60;;;;;;;;;;5001559;28;92749;-69
2022/01/17 08:48:53;;;;;;;35.90;7.50;;;;;;;;;;5003588;28;93587;-68
2022/01/17 08:51:20;;;;;;;18.70;6.32;;;;;;;;;;5001369;28;93234;-68
2022/01/17 08:53:46;;;;;;;24.38;7.03;;;;;;;;;;5002028;28;92932;-68
2022/01/17 08:56:12;;;;;;;25.50;5.78;;;;;;;;;;5005433;28;95609;-69
2022/01/17 08:58:39;;;;;;;32.58;6.50;;;;;;;;;;5001172;28;94826;-69
2022/01/17 09:01:05;;;;;;;29.55;6.78;;;;;;;;;;5010082;28;95399;-68
2022/01/17 09:03:32;;;;;;;35.80;9.43;;;;;;;;;;5003807;28;94412;-70
2022/01/17 09:05:58;;;;;;;40.85;6.78;;;;;;;;;;4997508;28;93057;-69
2022/01/17 09:08:25;;;;;;;18.48;5.30;;;;;;;;;;5002681;28;93175;-69
2022/01/17 09:10:54;;;;;;;25.83;5.10;;;;;;;;;;4998997;28;94237;-69
2022/01/17 09:13:21;;;;;;;22.67;5.50;;;;;;;;;;4999512;28;92508;-69
2022/01/17 09:15:47;;;;;;;28.98;5.63;;;;;;;;;;5005046;28;93215;-69
2022/01/17 09:18:14;;;;;;;30.50;5.90;;;;;;;;;;5006687;28;93653;-69
2022/01/17 09:20:41;;;;;;;25.25;6.13;;;;;;;;;;5008615;28;94853;-69
2022/01/17 09:23:07;;;;;;;21.02;4.20;;;;;;;;;;5009433;28;94382;-69
2022/01/17 09:25:34;;;;;;;18.67;5.20;;;;;;;;;;5011514;28;92642;-69
2022/01/17 09:28:00;;;;;;;28.60;5.63;;;;;;;;;;5009415;28;92839;-69
2022/01/17 09:30:27;;;;;;;28.45;4.80;;;;;;;;;;5001185;28;93738;-69
2022/01/17 09:32:54;;;;;;;43.25;5.88;;;;;;;;;;4997393;28;92549;-69
2022/01/17 09:35:20;;;;;;;31.98;5.70;;;;;;;;;;5006454;28;93983;-70
2022/01/17 09:37:47;;;;;;;27.23;6.03;;;;;;;;;;4994888;28;92552;-69
2022/01/17 09:40:13;;;;;;;27.92;5.28;;;;;;;;;;5002199;28;92472;-69
2022/01/17 09:42:39;;;;;;;28.42;5.13;;;;;;;;;;5009522;28;94111;-69
2022/01/17 09:45:08;;;;;;;32.47;5.25;;;;;;;;;;4991743;28;96628;-69
2022/01/17 09:47:36;;;;;;;28.35;5.63;;;;;;;;;;5012458;28;95408;-69
2022/01/17 09:50:06;;;;;;;36.33;5.32;;;;;;;;;;5003324;28;93523;-69
2022/01/17 09:52:35;;;;;;;22.65;4.53;;;;;;;;;;5011885;28;92516;-69
2022/01/17 09:55:10;;;;;;;24.40;5.13;;;;;;;;;;5001614;28;94065;-69
2022/01/17 09:57:38;;;;;;;26.27;4.55;;;;;;;;;;5004051;28;93371;-69
2022/01/17 10:00:06;;;;;;;35.13;6.13;;;;;;;;;;5008858;28;94186;-69
2022/01/17 10:02:39;;;;;;;21.20;4.68;;;;;;;;;;5002350;28;92532;-69
2022/01/17 10:05:10;;;;;;;33.75;4.82;;;;;;;;;;5001386;28;94124;-69
2022/01/17 10:07:52;;;;;;;30.50;4.90;;;;;;;;;;5010607;28;93458;-68
2022/01/17 10:10:35;;;;;;;31.98;5.32;;;;;;;;;;4985458;28;95869;-69
2022/01/17 10:13:06;;;;;;;39.70;4.95;;;;;;;;;;5001859;28;93177;-69
2022/01/17 10:15:44;;;;;;;31.67;4.60;;;;;;;;;;5006071;28;93977;-69
2022/01/17 10:18:45;;;;;;;27.27;5.03;;;;;;;;;;5003583;28;94647;-69
2022/01/17 10:21:17;;;;;;;37.33;5.20;;;;;;;;;;4942835;28;92587;-68
2022/01/17 10:37:20;;;;;;;17.25;3.63;;;;;;;;;;4999343;28;95911;-68
2022/01/17 10:39:51;;;;;;;33.03;4.57;;;;;;;;;;4993202;28;94141;-68
2022/01/17 10:42:41;;;;;;;24.15;4.78;;;;;;;;;;5009360;28;92465;-68
2022/01/17 10:45:07;;;;;;;27.70;4.32;;;;;;;;;;4987981;28;93582;-68
2022/01/17 10:47:39;;;;;;;21.02;4.68;;;;;;;;;;4991071;28;93737;-67
2022/01/17 10:50:09;;;;;;;24.83;5.45;;;;;;;;;;4990188;28;93368;-68
2022/01/17 10:52:37;;;;;;;33.17;5.95;;;;;;;;;;4992245;28;93128;-68
2022/01/17 10:55:10;;;;;;;22.13;5.28;;;;;;;;;;4994832;28;93604;-68
2022/01/17 10:57:39;;;;;;;32.90;5.28;;;;;;;;;;4992514;28;93303;-68
2022/01/17 11:00:08;;;;;;;23.70;4.07;;;;;;;;;;4992032;28;94324;-68
2022/01/17 11:02:35;;;;;;;25.73;4.80;;;;;;;;;;4990542;28;94919;-68
2022/01/17 11:05:03;;;;;;;26.45;6.18;;;;;;;;;;4992580;28;96285;-68
2022/01/17 11:07:29;;;;;;;24.00;3.72;;;;;;;;;;4990886;28;93209;-69
2022/01/17 11:10:00;;;;;;;25.35;4.65;;;;;;;;;;4992885;28;92500;-68
2022/01/17 11:12:31;;;;;;;28.35;5.45;;;;;;;;;;4992133;28;93911;-68
2022/01/17 11:14:58;;;;;;;32.33;4.80;;;;;;;;;;4991213;28;93321;-68
2022/01/17 11:17:37;;;;;;;33.70;5.72;;;;;;;;;;4994436;28;93198;-67
2022/01/17 11:20:07;;;;;;;20.30;4.88;;;;;;;;;;4987425;28;92463;-67
2022/01/17 11:22:34;;;;;;;38.47;6.20;;;;;;;;;;4991225;28;92653;-68
2022/01/17 11:25:01;;;;;;;19.98;3.97;;;;;;;;;;4991932;28;94000;-71
2022/01/17 11:27:28;;;;;;;23.77;5.15;;;;;;;;;;4989751;28;96396;-68
2022/01/17 11:29:55;;;;;;;31.38;4.93;;;;;;;;;;4990352;28;93093;-68
2022/01/17 11:32:22;;;;;;;20.63;4.28;;;;;;;;;;4991254;28;93226;-67
2022/01/17 11:34:51;;;;;;;19.83;3.83;;;;;;;;;;4991962;28;94115;-68
2022/01/17 11:37:18;;;;;;;21.55;4.07;;;;;;;;;;4994836;28;92623;-68
2022/01/17 11:39:48;;;;;;;24.88;3.75;;;;;;;;;;4990902;28;93348;-68
2022/01/17 11:42:33;;;;;;;25.45;4.20;;;;;;;;;;4991274;28;92727;-68
2022/01/17 11:45:00;;;;;;;34.67;5.35;;;;;;;;;;4992237;28;93369;-68
2022/01/17 11:47:45;;;;;;;24.33;5.88;;;;;;;;;;4991600;28;94159;-68
2022/01/17 11:53:02;;;;;;;22.52;3.83;;;;;;;;;;4989763;28;95223;-68
2022/01/17 11:55:43;;;;;;;24.27;4.05;;;;;;;;;;4991118;28;94258;-68
2022/01/17 11:58:29;;;;;;;23.20;4.43;;;;;;;;;;4990541;28;92531;-68
2022/01/17 12:01:08;;;;;;;17.67;4.65;;;;;;;;;;4994346;28;93785;-68
2022/01/17 12:03:42;;;;;;;28.33;4.35;;;;;;;;;;4991406;28;92991;-68
2022/01/17 12:06:24;;;;;;;26.15;4.47;;;;;;;;;;4991253;28;93202;-68
2022/01/17 12:09:10;;;;;;;29.35;5.75;;;;;;;;;;4992977;28;92784;-68
2022/01/17 12:11:37;;;;;;;24.48;3.80;;;;;;;;;;4985768;28;92030;-68
2022/01/17 12:14:27;;;;;;;27.35;5.53;;;;;;;;;;4990877;28;93738;-68
2022/01/17 12:17:14;;;;;;;25.30;4.38;;;;;;;;;;4985879;28;93562;-67
2022/01/17 12:19:59;;;;;;;28.42;4.13;;;;;;;;;;4988714;28;95413;-68
2022/01/17 12:22:25;;;;;;;29.17;4.65;;;;;;;;;;4985262;28;96952;-68
2022/01/17 12:24:57;;;;;;;34.75;5.47;;;;;;;;;;4985035;28;94346;-68
2022/01/17 12:27:27;;;;;;;35.95;5.57;;;;;;;;;;4986778;28;94311;-68
2022/01/17 12:29:55;;;;;;;27.05;5.25;;;;;;;;;;4987628;28;94129;-68
2022/01/17 12:32:45;;;;;;;23.95;4.22;;;;;;;;;;4990421;28;92568;-68
2022/01/17 12:35:13;;;;;;;25.98;5.32;;;;;;;;;;4991144;28;95101;-69
2022/01/17 12:37:39;;;;;;;22.95;4.32;;;;;;;;;;4991876;28;93514;-68
2022/01/17 12:40:07;;;;;;;31.88;4.75;;;;;;;;;;4990648;28;92503;-68
2022/01/17 12:42:51;;;;;;;28.92;5.35;;;;;;;;;;4992678;28;93228;-68
2022/01/17 12:45:21;;;;;;;34.25;5.22;;;;;;;;;;4988674;28;96670;-68
2022/01/17 12:47:48;;;;;;;21.25;4.43;;;;;;;;;;4997686;28;92522;-68
2022/01/17 12:50:14;;;;;;;15.30;3.60;;;;;;;;;;4993508;28;93646;-68
2022/01/17 12:52:41;;;;;;;35.13;5.45;;;;;;;;;;4986525;28;94466;-68
2022/01/17 12:55:07;;;;;;;31.98;5.13;;;;;;;;;;4992431;28;95534;-68
2022/01/17 12:57:44;;;;;;;29.42;4.85;;;;;;;;;;4993618;28;93732;-68
2022/01/17 13:00:21;;;;;;;24.52;4.65;;;;;;;;;;4993732;28;92579;-68
2022/01/17 13:02:48;;;;;;;38.95;7.32;;;;;;;;;;4987558;28;93191;-68
2022/01/17 13:05:20;;;;;;;30.63;5.18;;;;;;;;;;4994610;28;94240;-68
2022/01/17 13:07:47;;;;;;;28.85;4.68;;;;;;;;;;4994114;28;92509;-68
2022/01/17 13:10:13;;;;;;;25.42;4.57;;;;;;;;;;4995825;28;94929;-68
2022/01/17 13:12:41;;;;;;;36.65;5.93;;;;;;;;;;4993936;28;92426;-68
2022/01/17 13:15:10;;;;;;;21.73;4.22;;;;;;;;;;4993616;28;93140;-68
2022/01/17 13:17:37;;;;;;;36.38;5.30;;;;;;;;;;4993715;28;94244;-68
2022/01/17 13:20:05;;;;;;;39.92;5.88;;;;;;;;;;4995711;28;93601;-68
2022/01/17 13:22:51;;;;;;;29.33;4.75;;;;;;;;;;4993137;28;94161;-67
2022/01/17 13:25:18;;;;;;;33.75;4.82;;;;;;;;;;4993616;28;94185;-68
2022/01/17 13:27:44;;;;;;;31.35;5.40;;;;;;;;;;4993936;28;92096;-68
2022/01/17 13:30:11;;;;;;;36.45;6.15;;;;;;;;;;4993860;28;92703;-68
2022/01/17 13:32:38;;;;;;;30.52;5.20;;;;;;;;;;4995957;28;94276;-68
2022/01/17 13:35:09;;;;;;;35.92;6.82;;;;;;;;;;4992133;28;95022;-68
2022/01/17 13:38:05;;;;;;;29.30;4.90;;;;;;;;;;4993628;28;94987;-68
2022/01/17 13:40:33;;;;;;;34.70;6.82;;;;;;;;;;4993676;28;92475;-68
2022/01/17 13:43:00;;;;;;;35.60;5.93;;;;;;;;;;4992914;28;94452;-68
2022/01/17 13:45:37;;;;;;;33.85;5.57;;;;;;;;;;4993392;28;94204;-68
2022/01/17 13:48:06;;;;;;;32.00;5.82;;;;;;;;;;4994027;28;93474;-68
2022/01/17 13:50:34;;;;;;;36.63;6.53;;;;;;;;;;4993121;28;94078;-68
2022/01/17 13:53:01;;;;;;;34.88;4.90;;;;;;;;;;4996339;28;93904;-68
2022/01/17 13:55:28;;;;;;;42.40;7.00;;;;;;;;;;4989657;28;93182;-68
2022/01/17 13:57:58;;;;;;;23.25;4.50;;;;;;;;;;4992653;28;94535;-68
2022/01/17 14:00:31;;;;;;;28.08;4.50;;;;;;;;;;4992383;28;94884;-68
2022/01/17 14:03:01;;;;;;;32.05;5.70;;;;;;;;;;4992762;28;96333;-68
2022/01/17 14:05:29;;;;;;;32.05;5.15;;;;;;;;;;4993306;28;93159;-68
2022/01/17 14:08:11;;;;;;;35.40;5.45;;;;;;;;;;4992513;28;93019;-68
2022/01/17 14:10:46;;;;;;;35.42;5.82;;;;;;;;;;4992491;28;93579;-69
2022/01/17 14:13:16;;;;;;;37.83;6.45;;;;;;;;;;4992566;28;93555;-68
2022/01/17 14:15:42;;;;;;;39.95;5.28;;;;;;;;;;4996264;28;92547;-69
2022/01/17 14:18:09;;;;;;;26.73;7.28;;;;;;;;;;4992372;28;92553;-68
2022/01/17 14:20:38;;;;;;;31.30;6.20;;;;;;;;;;4993145;28;93141;-69
2022/01/17 14:23:05;;;;;;;26.35;4.50;;;;;;;;;;4993479;28;93978;-69
2022/01/17 14:25:37;;;;;;;37.42;6.30;;;;;;;;;;4989739;28;96188;-68
2022/01/17 14:28:05;;;;;;;23.33;5.32;;;;;;;;;;4994494;28;92537;-69
2022/01/17 14:30:33;;;;;;;29.67;7.43;;;;;;;;;;4989120;28;92906;-68
2022/01/17 14:33:08;;;;;;;32.33;6.07;;;;;;;;;;4992760;28;94453;-68
2022/01/17 14:35:34;;;;;;;35.17;4.97;;;;;;;;;;4985149;28;92534;-69
2022/01/17 14:38:00;;;;;;;41.03;5.88;;;;;;;;;;4994416;28;93423;-69
2022/01/17 14:40:32;;;;;;;46.40;6.78;;;;;;;;;;4992602;28;92465;-69
2022/01/17 14:43:16;;;;;;;41.55;6.40;;;;;;;;;;4993120;28;93796;-68
2022/01/17 14:45:48;;;;;;;32.97;6.10;;;;;;;;;;4985441;28;94463;-69
2022/01/17 14:48:15;;;;;;;28.33;5.50;;;;;;;;;;4992531;28;92717;-69
2022/01/17 14:50:41;;;;;;;26.58;4.47;;;;;;;;;;4994351;28;95161;-68
2022/01/17 14:53:15;;;;;;;31.83;5.85;;;;;;;;;;4995700;28;95474;-69
2022/01/17 15:01:01;;;;;;;41.15;5.88;;;;;;;;;;4993296;28;94936;-68
2022/01/17 15:03:32;;;;;;;57.70;6.25;;;;;;;;;;4986605;28;93063;-68
2022/01/17 15:05:59;;;;;;;41.03;7.20;;;;;;;;;;4989647;28;94213;-68
2022/01/17 15:08:25;;;;;;;32.42;6.28;;;;;;;;;;4996052;28;91928;-68